sensor_id;sensor_type;location;lat;lon;timestamp;temperature;humidity
21772;DHT22;11047;47.904;8.110;2022-07-10T00:00:28;12.60;99.90
21772;DHT22;11047;47.904;8.110;2022-07-10T00:02:56;12.60;99.90
21772;DHT22;11047;47.904;8.110;2022-07-10T00:05:24;12.50;99.90
21772;DHT22;11047;47.904;8.110;2022-07-10T00:07:51;12.60;99.90
21772;DHT22;11047;47.904;8.110;2022-07-10T00:10:19;12.70;99.90
21772;DHT22;11047;47.904;8.110;2022-07-10T00:12:48;12.80;99.90
21772;DHT22;11047;47.904;8.110;2022-07-10T00:15:16;12.70;99.90
21772;DHT22;11047;47.904;8.110;2022-07-10T00:17:43;12.70;99.90
21772;DHT22;11047;47.904;8.110;2022-07-10T00:20:12;12.40;99.90
21772;DHT22;11047;47.904;8.110;2022-07-10T00:22:39;12.40;99.90
21772;DHT22;11047;47.904;8.110;2022-07-10T00:25:09;12.20;99.90
21772;DHT22;11047;47.904;8.110;2022-07-10T00:27:36;12.20;99.90
21772;DHT22;11047;47.904;8.110;2022-07-10T00:30:05;12.20;99.90
21772;DHT22;11047;47.904;8.110;2022-07-10T00:32:32;12.10;99.90
21772;DHT22;11047;47.904;8.110;2022-07-10T00:34:59;11.90;99.90
21772;DHT22;11047;47.904;8.110;2022-07-10T00:37:27;11.90;99.90
21772;DHT22;11047;47.904;8.110;2022-07-10T00:39:54;11.90;99.90
21772;DHT22;11047;47.904;8.110;2022-07-10T00:42:21;12.10;99.90
21772;DHT22;11047;47.904;8.110;2022-07-10T00:44:48;12.10;99.90
21772;DHT22;11047;47.904;8.110;2022-07-10T00:47:16;12.20;99.90
21772;DHT22;11047;47.904;8.110;2022-07-10T00:49:45;12.20;99.90
21772;DHT22;11047;47.904;8.110;2022-07-10T00:52:14;12.00;99.90
21772;DHT22;11047;47.904;8.110;2022-07-10T00:54:43;12.00;99.90
21772;DHT22;11047;47.904;8.110;2022-07-10T00:57:12;12.00;99.90
21772;DHT22;11047;47.904;8.110;2022-07-10T00:59:40;11.90;99.90
21772;DHT22;11047;47.904;8.110;2022-07-10T01:02:07;11.70;99.90
21772;DHT22;11047;47.904;8.110;2022-07-10T01:04:36;11.80;99.90
21772;DHT22;11047;47.904;8.110;2022-07-10T01:07:04;11.90;99.90
21772;DHT22;11047;47.904;8.110;2022-07-10T01:09:32;11.90;99.90
21772;DHT22;11047;47.904;8.110;2022-07-10T01:12:00;11.90;99.90
21772;DHT22;11047;47.904;8.110;2022-07-10T01:14:28;12.00;99.90
21772;DHT22;11047;47.904;8.110;2022-07-10T01:16:56;12.10;99.90
21772;DHT22;11047;47.904;8.110;2022-07-10T01:19:23;12.10;99.90
21772;DHT22;11047;47.904;8.110;2022-07-10T01:21:51;12.20;99.90
21772;DHT22;11047;47.904;8.110;2022-07-10T01:24:18;12.20;99.90
21772;DHT22;11047;47.904;8.110;2022-07-10T01:26:45;12.30;99.90
21772;DHT22;11047;47.904;8.110;2022-07-10T01:29:12;12.20;99.90
21772;DHT22;11047;47.904;8.110;2022-07-10T01:31:39;12.30;99.90
21772;DHT22;11047;47.904;8.110;2022-07-10T01:34:07;12.10;99.90
21772;DHT22;11047;47.904;8.110;2022-07-10T01:36:35;12.00;99.90
21772;DHT22;11047;47.904;8.110;2022-07-10T01:39:04;11.90;99.90
21772;DHT22;11047;47.904;8.110;2022-07-10T01:41:31;11.80;99.90
21772;DHT22;11047;47.904;8.110;2022-07-10T01:43:59;11.80;99.90
21772;DHT22;11047;47.904;8.110;2022-07-10T01:46:25;11.60;99.90
21772;DHT22;11047;47.904;8.110;2022-07-10T01:48:52;11.60;99.90
21772;DHT22;11047;47.904;8.110;2022-07-10T01:51:20;11.70;99.90
21772;DHT22;11047;47.904;8.110;2022-07-10T01:53:47;11.70;99.90
21772;DHT22;11047;47.904;8.110;2022-07-10T01:56:15;11.60;99.90
21772;DHT22;11047;47.904;8.110;2022-07-10T01:58:42;11.70;99.90
21772;DHT22;11047;47.904;8.110;2022-07-10T02:01:10;11.50;99.90
21772;DHT22;11047;47.904;8.110;2022-07-10T02:03:37;11.40;99.90
21772;DHT22;11047;47.904;8.110;2022-07-10T02:06:21;11.30;99.90
21772;DHT22;11047;47.904;8.110;2022-07-10T02:08:48;11.50;99.90
21772;DHT22;11047;47.904;8.110;2022-07-10T02:11:17;11.30;99.90
21772;DHT22;11047;47.904;8.110;2022-07-10T02:13:43;11.40;99.90
21772;DHT22;11047;47.904;8.110;2022-07-10T02:16:11;11.40;99.90
21772;DHT22;11047;47.904;8.110;2022-07-10T02:18:38;11.30;99.90
21772;DHT22;11047;47.904;8.110;2022-07-10T02:21:05;11.00;99.90
21772;DHT22;11047;47.904;8.110;2022-07-10T02:23:33;11.10;99.90
21772;DHT22;11047;47.904;8.110;2022-07-10T02:26:00;11.10;99.90
21772;DHT22;11047;47.904;8.110;2022-07-10T02:28:28;11.10;99.90
21772;DHT22;11047;47.904;8.110;2022-07-10T02:30:56;11.00;99.90
21772;DHT22;11047;47.904;8.110;2022-07-10T02:33:22;11.00;99.90
21772;DHT22;11047;47.904;8.110;2022-07-10T02:35:49;10.90;99.90
21772;DHT22;11047;47.904;8.110;2022-07-10T02:38:16;10.90;99.90
21772;DHT22;11047;47.904;8.110;2022-07-10T02:40:43;10.90;99.90
21772;DHT22;11047;47.904;8.110;2022-07-10T02:43:10;11.00;99.90
21772;DHT22;11047;47.904;8.110;2022-07-10T02:45:39;11.00;99.90
21772;DHT22;11047;47.904;8.110;2022-07-10T02:48:05;11.10;99.90
21772;DHT22;11047;47.904;8.110;2022-07-10T02:50:32;11.00;99.90
21772;DHT22;11047;47.904;8.110;2022-07-10T02:52:59;11.00;99.90
21772;DHT22;11047;47.904;8.110;2022-07-10T02:55:28;10.70;99.90
21772;DHT22;11047;47.904;8.110;2022-07-10T02:57:57;10.80;99.90
21772;DHT22;11047;47.904;8.110;2022-07-10T03:00:24;10.90;99.90
21772;DHT22;11047;47.904;8.110;2022-07-10T03:02:52;10.90;99.90
21772;DHT22;11047;47.904;8.110;2022-07-10T03:05:20;10.80;99.90
21772;DHT22;11047;47.904;8.110;2022-07-10T03:07:46;10.80;99.90
21772;DHT22;11047;47.904;8.110;2022-07-10T03:10:13;10.80;99.90
21772;DHT22;11047;47.904;8.110;2022-07-10T03:12:40;10.80;99.90
21772;DHT22;11047;47.904;8.110;2022-07-10T03:15:08;10.70;99.90
21772;DHT22;11047;47.904;8.110;2022-07-10T03:17:35;10.70;99.90
21772;DHT22;11047;47.904;8.110;2022-07-10T03:20:04;10.70;99.90
21772;DHT22;11047;47.904;8.110;2022-07-10T03:22:31;10.80;99.90
21772;DHT22;11047;47.904;8.110;2022-07-10T03:24:58;10.80;99.90
21772;DHT22;11047;47.904;8.110;2022-07-10T03:27:25;10.90;99.90
21772;DHT22;11047;47.904;8.110;2022-07-10T03:29:52;10.70;99.90
21772;DHT22;11047;47.904;8.110;2022-07-10T03:32:19;10.70;99.90
21772;DHT22;11047;47.904;8.110;2022-07-10T03:34:46;10.80;99.90
21772;DHT22;11047;47.904;8.110;2022-07-10T03:37:14;10.80;99.90
21772;DHT22;11047;47.904;8.110;2022-07-10T03:39:41;10.60;99.90
21772;DHT22;11047;47.904;8.110;2022-07-10T03:42:08;10.60;99.90
21772;DHT22;11047;47.904;8.110;2022-07-10T03:44:34;10.50;99.90
21772;DHT22;11047;47.904;8.110;2022-07-10T03:47:02;10.50;99.90
21772;DHT22;11047;47.904;8.110;2022-07-10T03:49:29;10.50;99.90
21772;DHT22;11047;47.904;8.110;2022-07-10T03:51:59;10.60;99.90
21772;DHT22;11047;47.904;8.110;2022-07-10T03:54:28;10.70;99.90
21772;DHT22;11047;47.904;8.110;2022-07-10T03:56:55;10.60;99.90
21772;DHT22;11047;47.904;8.110;2022-07-10T03:59:40;10.50;99.90
21772;DHT22;11047;47.904;8.110;2022-07-10T04:02:07;10.30;99.90
21772;DHT22;11047;47.904;8.110;2022-07-10T04:04:34;10.40;99.90
21772;DHT22;11047;47.904;8.110;2022-07-10T04:07:01;10.30;99.90
21772;DHT22;11047;47.904;8.110;2022-07-10T04:09:31;10.40;99.90
21772;DHT22;11047;47.904;8.110;2022-07-10T04:11:57;10.40;99.90
21772;DHT22;11047;47.904;8.110;2022-07-10T04:14:24;10.50;99.90
21772;DHT22;11047;47.904;8.110;2022-07-10T04:16:51;10.50;99.90
21772;DHT22;11047;47.904;8.110;2022-07-10T04:19:18;10.50;99.90
21772;DHT22;11047;47.904;8.110;2022-07-10T04:21:47;10.40;99.90
21772;DHT22;11047;47.904;8.110;2022-07-10T04:24:14;10.40;99.90
21772;DHT22;11047;47.904;8.110;2022-07-10T04:26:42;10.30;99.90
21772;DHT22;11047;47.904;8.110;2022-07-10T04:29:09;10.40;99.90
21772;DHT22;11047;47.904;8.110;2022-07-10T04:31:36;10.50;99.90
21772;DHT22;11047;47.904;8.110;2022-07-10T04:34:03;10.50;99.90
21772;DHT22;11047;47.904;8.110;2022-07-10T04:36:29;10.50;99.90
21772;DHT22;11047;47.904;8.110;2022-07-10T04:38:56;10.60;99.90
21772;DHT22;11047;47.904;8.110;2022-07-10T04:41:23;10.70;99.90
21772;DHT22;11047;47.904;8.110;2022-07-10T04:43:51;11.00;99.90
21772;DHT22;11047;47.904;8.110;2022-07-10T04:46:18;11.10;99.90
21772;DHT22;11047;47.904;8.110;2022-07-10T04:48:45;11.20;99.90
21772;DHT22;11047;47.904;8.110;2022-07-10T04:51:12;11.30;99.90
21772;DHT22;11047;47.904;8.110;2022-07-10T04:53:39;11.30;99.90
21772;DHT22;11047;47.904;8.110;2022-07-10T04:56:06;11.40;99.90
21772;DHT22;11047;47.904;8.110;2022-07-10T04:58:33;11.40;99.90
21772;DHT22;11047;47.904;8.110;2022-07-10T05:01:02;11.40;99.90
21772;DHT22;11047;47.904;8.110;2022-07-10T05:03:29;11.40;99.90
21772;DHT22;11047;47.904;8.110;2022-07-10T05:05:56;11.40;99.90
21772;DHT22;11047;47.904;8.110;2022-07-10T05:08:23;11.50;99.90
21772;DHT22;11047;47.904;8.110;2022-07-10T05:10:50;11.70;99.90
21772;DHT22;11047;47.904;8.110;2022-07-10T05:13:17;11.80;99.90
21772;DHT22;11047;47.904;8.110;2022-07-10T05:15:45;11.80;99.90
21772;DHT22;11047;47.904;8.110;2022-07-10T05:18:14;11.90;99.90
21772;DHT22;11047;47.904;8.110;2022-07-10T05:20:40;12.00;99.90
21772;DHT22;11047;47.904;8.110;2022-07-10T05:23:09;12.10;99.90
21772;DHT22;11047;47.904;8.110;2022-07-10T05:25:37;12.20;99.90
21772;DHT22;11047;47.904;8.110;2022-07-10T05:28:04;12.20;99.90
21772;DHT22;11047;47.904;8.110;2022-07-10T05:30:31;12.40;99.90
21772;DHT22;11047;47.904;8.110;2022-07-10T05:32:59;12.50;99.90
21772;DHT22;11047;47.904;8.110;2022-07-10T05:35:27;12.60;99.90
21772;DHT22;11047;47.904;8.110;2022-07-10T05:37:54;12.70;99.90
21772;DHT22;11047;47.904;8.110;2022-07-10T05:40:21;12.90;99.90
21772;DHT22;11047;47.904;8.110;2022-07-10T05:42:48;12.90;99.90
21772;DHT22;11047;47.904;8.110;2022-07-10T05:45:15;12.90;99.90
21772;DHT22;11047;47.904;8.110;2022-07-10T05:47:42;13.10;99.90
21772;DHT22;11047;47.904;8.110;2022-07-10T05:50:10;13.20;99.90
21772;DHT22;11047;47.904;8.110;2022-07-10T05:52:39;13.30;99.90
21772;DHT22;11047;47.904;8.110;2022-07-10T05:55:07;13.40;99.90
21772;DHT22;11047;47.904;8.110;2022-07-10T05:57:34;13.60;99.90
21772;DHT22;11047;47.904;8.110;2022-07-10T06:00:01;13.70;99.90
21772;DHT22;11047;47.904;8.110;2022-07-10T06:02:29;13.80;99.90
21772;DHT22;11047;47.904;8.110;2022-07-10T06:04:56;13.90;99.90
21772;DHT22;11047;47.904;8.110;2022-07-10T06:07:23;14.00;99.90
21772;DHT22;11047;47.904;8.110;2022-07-10T06:09:52;14.00;99.90
21772;DHT22;11047;47.904;8.110;2022-07-10T06:12:18;14.00;99.90
21772;DHT22;11047;47.904;8.110;2022-07-10T06:14:46;14.10;99.90
21772;DHT22;11047;47.904;8.110;2022-07-10T06:17:12;14.10;99.90
21772;DHT22;11047;47.904;8.110;2022-07-10T06:19:39;14.30;99.90
21772;DHT22;11047;47.904;8.110;2022-07-10T06:22:06;14.40;99.90
21772;DHT22;11047;47.904;8.110;2022-07-10T06:24:52;14.50;99.90
21772;DHT22;11047;47.904;8.110;2022-07-10T06:27:19;14.70;99.90
21772;DHT22;11047;47.904;8.110;2022-07-10T06:29:46;14.90;99.90
21772;DHT22;11047;47.904;8.110;2022-07-10T06:32:13;15.00;99.90
21772;DHT22;11047;47.904;8.110;2022-07-10T06:34:39;15.00;99.90
21772;DHT22;11047;47.904;8.110;2022-07-10T06:37:06;15.10;99.90
21772;DHT22;11047;47.904;8.110;2022-07-10T06:39:34;15.20;99.90
21772;DHT22;11047;47.904;8.110;2022-07-10T06:42:03;15.30;99.90
21772;DHT22;11047;47.904;8.110;2022-07-10T06:44:31;15.40;99.90
21772;DHT22;11047;47.904;8.110;2022-07-10T06:46:58;15.50;99.90
21772;DHT22;11047;47.904;8.110;2022-07-10T06:49:43;15.50;99.90
21772;DHT22;11047;47.904;8.110;2022-07-10T06:52:11;15.60;99.90
21772;DHT22;11047;47.904;8.110;2022-07-10T06:54:39;15.70;99.90
21772;DHT22;11047;47.904;8.110;2022-07-10T06:57:07;15.70;99.90
21772;DHT22;11047;47.904;8.110;2022-07-10T06:59:34;15.70;99.90
21772;DHT22;11047;47.904;8.110;2022-07-10T07:02:01;15.80;99.90
21772;DHT22;11047;47.904;8.110;2022-07-10T07:04:28;16.10;99.90
21772;DHT22;11047;47.904;8.110;2022-07-10T07:06:55;16.20;99.90
21772;DHT22;11047;47.904;8.110;2022-07-10T07:09:22;16.50;99.90
21772;DHT22;11047;47.904;8.110;2022-07-10T07:11:48;16.60;99.90
21772;DHT22;11047;47.904;8.110;2022-07-10T07:14:17;16.70;99.90
21772;DHT22;11047;47.904;8.110;2022-07-10T07:16:44;16.90;99.90
21772;DHT22;11047;47.904;8.110;2022-07-10T07:19:22;17.10;99.90
21772;DHT22;11047;47.904;8.110;2022-07-10T07:21:56;17.20;99.90
21772;DHT22;11047;47.904;8.110;2022-07-10T07:24:41;17.00;99.90
21772;DHT22;11047;47.904;8.110;2022-07-10T07:27:08;17.20;99.90
21772;DHT22;11047;47.904;8.110;2022-07-10T07:29:37;17.40;99.90
21772;DHT22;11047;47.904;8.110;2022-07-10T07:32:04;17.50;99.90
21772;DHT22;11047;47.904;8.110;2022-07-10T07:34:31;17.90;99.90
21772;DHT22;11047;47.904;8.110;2022-07-10T07:36:58;18.10;99.90
21772;DHT22;11047;47.904;8.110;2022-07-10T07:39:25;18.40;99.90
21772;DHT22;11047;47.904;8.110;2022-07-10T07:41:52;18.70;99.90
21772;DHT22;11047;47.904;8.110;2022-07-10T07:44:19;18.80;99.90
21772;DHT22;11047;47.904;8.110;2022-07-10T07:46:47;18.70;99.90
21772;DHT22;11047;47.904;8.110;2022-07-10T07:49:14;18.80;99.90
21772;DHT22;11047;47.904;8.110;2022-07-10T07:51:41;18.70;99.90
21772;DHT22;11047;47.904;8.110;2022-07-10T07:54:07;18.30;99.90
21772;DHT22;11047;47.904;8.110;2022-07-10T07:56:34;18.40;99.90
21772;DHT22;11047;47.904;8.110;2022-07-10T07:59:01;19.00;99.90
21772;DHT22;11047;47.904;8.110;2022-07-10T08:01:28;19.30;99.90
21772;DHT22;11047;47.904;8.110;2022-07-10T08:03:56;19.50;99.90
21772;DHT22;11047;47.904;8.110;2022-07-10T08:06:24;19.70;99.90
21772;DHT22;11047;47.904;8.110;2022-07-10T08:08:51;19.60;99.90
21772;DHT22;11047;47.904;8.110;2022-07-10T08:11:18;19.40;99.90
21772;DHT22;11047;47.904;8.110;2022-07-10T08:13:45;19.30;99.90
21772;DHT22;11047;47.904;8.110;2022-07-10T08:16:11;19.00;99.90
21772;DHT22;11047;47.904;8.110;2022-07-10T08:18:38;19.30;99.90
21772;DHT22;11047;47.904;8.110;2022-07-10T08:21:07;19.90;99.90
21772;DHT22;11047;47.904;8.110;2022-07-10T08:23:33;20.30;99.90
21772;DHT22;11047;47.904;8.110;2022-07-10T08:26:00;20.20;99.90
21772;DHT22;11047;47.904;8.110;2022-07-10T08:28:27;20.50;99.90
21772;DHT22;11047;47.904;8.110;2022-07-10T08:30:54;20.80;99.90
21772;DHT22;11047;47.904;8.110;2022-07-10T08:33:21;20.40;99.90
21772;DHT22;11047;47.904;8.110;2022-07-10T08:35:48;20.80;99.90
21772;DHT22;11047;47.904;8.110;2022-07-10T08:38:16;20.40;99.90
21772;DHT22;11047;47.904;8.110;2022-07-10T08:40:43;20.60;99.90
21772;DHT22;11047;47.904;8.110;2022-07-10T08:43:11;21.20;99.90
21772;DHT22;11047;47.904;8.110;2022-07-10T08:45:40;21.50;99.90
21772;DHT22;11047;47.904;8.110;2022-07-10T08:48:09;21.10;99.90
21772;DHT22;11047;47.904;8.110;2022-07-10T08:50:43;21.00;99.90
21772;DHT22;11047;47.904;8.110;2022-07-10T08:53:13;20.70;99.90
21772;DHT22;11047;47.904;8.110;2022-07-10T08:55:45;20.50;99.90
21772;DHT22;11047;47.904;8.110;2022-07-10T08:58:12;20.60;99.90
21772;DHT22;11047;47.904;8.110;2022-07-10T09:00:39;21.10;99.90
21772;DHT22;11047;47.904;8.110;2022-07-10T09:03:07;21.40;99.90
21772;DHT22;11047;47.904;8.110;2022-07-10T09:05:34;21.70;99.90
21772;DHT22;11047;47.904;8.110;2022-07-10T09:08:01;21.90;99.90
21772;DHT22;11047;47.904;8.110;2022-07-10T09:10:28;21.60;99.90
21772;DHT22;11047;47.904;8.110;2022-07-10T09:12:57;21.80;99.90
21772;DHT22;11047;47.904;8.110;2022-07-10T09:15:28;22.00;99.90
21772;DHT22;11047;47.904;8.110;2022-07-10T09:17:59;21.80;99.90
21772;DHT22;11047;47.904;8.110;2022-07-10T09:20:29;21.10;99.90
21772;DHT22;11047;47.904;8.110;2022-07-10T09:22:58;21.60;99.90
21772;DHT22;11047;47.904;8.110;2022-07-10T09:25:32;21.60;99.90
21772;DHT22;11047;47.904;8.110;2022-07-10T09:28:01;21.90;99.90
21772;DHT22;11047;47.904;8.110;2022-07-10T09:30:33;21.60;99.90
21772;DHT22;11047;47.904;8.110;2022-07-10T09:33:17;21.50;99.90
21772;DHT22;11047;47.904;8.110;2022-07-10T09:36:03;21.60;99.90
21772;DHT22;11047;47.904;8.110;2022-07-10T09:38:49;21.60;99.90
21772;DHT22;11047;47.904;8.110;2022-07-10T09:41:18;21.40;99.90
21772;DHT22;11047;47.904;8.110;2022-07-10T09:43:49;21.80;99.90
21772;DHT22;11047;47.904;8.110;2022-07-10T09:46:16;21.90;99.90
21772;DHT22;11047;47.904;8.110;2022-07-10T09:48:43;22.00;99.90
21772;DHT22;11047;47.904;8.110;2022-07-10T09:51:11;22.30;99.90
21772;DHT22;11047;47.904;8.110;2022-07-10T09:53:40;22.10;99.90
21772;DHT22;11047;47.904;8.110;2022-07-10T09:56:09;21.70;99.90
21772;DHT22;11047;47.904;8.110;2022-07-10T09:58:36;21.70;99.90
21772;DHT22;11047;47.904;8.110;2022-07-10T10:01:06;22.40;99.90
21772;DHT22;11047;47.904;8.110;2022-07-10T10:03:34;22.50;99.90
21772;DHT22;11047;47.904;8.110;2022-07-10T10:06:03;22.70;99.90
21772;DHT22;11047;47.904;8.110;2022-07-10T10:08:37;22.80;99.90
21772;DHT22;11047;47.904;8.110;2022-07-10T10:11:05;22.80;99.90
21772;DHT22;11047;47.904;8.110;2022-07-10T10:13:34;22.90;99.90
21772;DHT22;11047;47.904;8.110;2022-07-10T10:16:02;23.00;99.90
21772;DHT22;11047;47.904;8.110;2022-07-10T10:18:30;22.60;99.90
21772;DHT22;11047;47.904;8.110;2022-07-10T10:20:57;23.00;99.90
21772;DHT22;11047;47.904;8.110;2022-07-10T10:23:24;22.70;99.90
21772;DHT22;11047;47.904;8.110;2022-07-10T10:25:55;23.20;99.90
21772;DHT22;11047;47.904;8.110;2022-07-10T10:28:23;23.30;99.90
21772;DHT22;11047;47.904;8.110;2022-07-10T10:30:52;23.60;99.90
21772;DHT22;11047;47.904;8.110;2022-07-10T10:33:43;23.90;99.90
21772;DHT22;11047;47.904;8.110;2022-07-10T10:39:04;23.40;99.90
21772;DHT22;11047;47.904;8.110;2022-07-10T10:41:38;23.20;99.90
21772;DHT22;11047;47.904;8.110;2022-07-10T10:44:35;23.20;99.90
21772;DHT22;11047;47.904;8.110;2022-07-10T10:47:04;22.90;99.90
21772;DHT22;11047;47.904;8.110;2022-07-10T10:49:56;22.90;99.90
21772;DHT22;11047;47.904;8.110;2022-07-10T10:52:24;23.30;99.90
21772;DHT22;11047;47.904;8.110;2022-07-10T10:55:07;23.70;99.90
21772;DHT22;11047;47.904;8.110;2022-07-10T10:57:42;23.70;99.90
21772;DHT22;11047;47.904;8.110;2022-07-10T11:00:34;23.70;99.90
21772;DHT22;11047;47.904;8.110;2022-07-10T11:03:19;24.00;99.90
21772;DHT22;11047;47.904;8.110;2022-07-10T11:05:49;23.60;99.90
21772;DHT22;11047;47.904;8.110;2022-07-10T11:08:36;23.70;99.90
21772;DHT22;11047;47.904;8.110;2022-07-10T11:14:03;24.20;99.90
21772;DHT22;11047;47.904;8.110;2022-07-10T11:16:31;24.20;99.90
21772;DHT22;11047;47.904;8.110;2022-07-10T11:19:00;24.10;99.90
21772;DHT22;11047;47.904;8.110;2022-07-10T11:21:40;24.20;99.90
21772;DHT22;11047;47.904;8.110;2022-07-10T11:24:21;23.90;99.90
21772;DHT22;11047;47.904;8.110;2022-07-10T11:26:59;24.20;99.90
21772;DHT22;11047;47.904;8.110;2022-07-10T11:29:36;24.10;99.90
21772;DHT22;11047;47.904;8.110;2022-07-10T11:32:03;24.20;99.90
21772;DHT22;11047;47.904;8.110;2022-07-10T11:34:35;24.20;99.90
21772;DHT22;11047;47.904;8.110;2022-07-10T11:37:03;23.90;99.90
21772;DHT22;11047;47.904;8.110;2022-07-10T11:39:39;23.60;99.90
21772;DHT22;11047;47.904;8.110;2022-07-10T11:42:06;23.70;99.90
21772;DHT22;11047;47.904;8.110;2022-07-10T11:44:33;23.40;99.90
21772;DHT22;11047;47.904;8.110;2022-07-10T11:47:00;24.00;99.90
21772;DHT22;11047;47.904;8.110;2022-07-10T11:49:44;23.50;99.90
21772;DHT22;11047;47.904;8.110;2022-07-10T11:52:12;23.80;99.90
21772;DHT22;11047;47.904;8.110;2022-07-10T11:54:39;23.30;99.90
21772;DHT22;11047;47.904;8.110;2022-07-10T11:57:08;23.10;99.90
21772;DHT22;11047;47.904;8.110;2022-07-10T11:59:35;23.20;99.90
21772;DHT22;11047;47.904;8.110;2022-07-10T12:02:04;23.70;99.90
21772;DHT22;11047;47.904;8.110;2022-07-10T12:04:32;23.60;99.90
21772;DHT22;11047;47.904;8.110;2022-07-10T12:06:59;23.90;99.90
21772;DHT22;11047;47.904;8.110;2022-07-10T12:09:27;23.20;99.90
21772;DHT22;11047;47.904;8.110;2022-07-10T12:11:59;23.50;99.90
21772;DHT22;11047;47.904;8.110;2022-07-10T12:14:26;23.40;99.90
21772;DHT22;11047;47.904;8.110;2022-07-10T12:16:55;23.50;99.90
21772;DHT22;11047;47.904;8.110;2022-07-10T12:19:24;23.40;99.90
21772;DHT22;11047;47.904;8.110;2022-07-10T12:21:53;22.60;99.90
21772;DHT22;11047;47.904;8.110;2022-07-10T12:24:21;22.90;99.90
21772;DHT22;11047;47.904;8.110;2022-07-10T12:26:51;23.20;99.90
21772;DHT22;11047;47.904;8.110;2022-07-10T12:29:20;23.20;99.90
21772;DHT22;11047;47.904;8.110;2022-07-10T12:31:47;22.90;99.90
21772;DHT22;11047;47.904;8.110;2022-07-10T12:34:15;22.70;99.90
21772;DHT22;11047;47.904;8.110;2022-07-10T12:36:46;22.90;99.90
21772;DHT22;11047;47.904;8.110;2022-07-10T12:39:14;22.70;99.90
21772;DHT22;11047;47.904;8.110;2022-07-10T12:41:57;22.80;99.90
21772;DHT22;11047;47.904;8.110;2022-07-10T12:44:32;22.80;99.90
21772;DHT22;11047;47.904;8.110;2022-07-10T12:47:03;22.50;99.90
21772;DHT22;11047;47.904;8.110;2022-07-10T12:49:48;22.60;99.90
21772;DHT22;11047;47.904;8.110;2022-07-10T12:52:19;22.50;99.90
21772;DHT22;11047;47.904;8.110;2022-07-10T12:54:46;22.80;99.90
21772;DHT22;11047;47.904;8.110;2022-07-10T12:57:15;23.00;99.90
21772;DHT22;11047;47.904;8.110;2022-07-10T12:59:42;23.30;99.90
21772;DHT22;11047;47.904;8.110;2022-07-10T13:02:17;23.10;99.90
21772;DHT22;11047;47.904;8.110;2022-07-10T13:04:54;23.10;99.90
21772;DHT22;11047;47.904;8.110;2022-07-10T13:07:29;23.00;99.90
21772;DHT22;11047;47.904;8.110;2022-07-10T13:09:58;23.10;99.90
21772;DHT22;11047;47.904;8.110;2022-07-10T13:12:27;22.80;99.90
21772;DHT22;11047;47.904;8.110;2022-07-10T13:14:54;23.00;99.90
21772;DHT22;11047;47.904;8.110;2022-07-10T13:17:21;23.20;99.90
21772;DHT22;11047;47.904;8.110;2022-07-10T13:19:49;23.50;99.90
21772;DHT22;11047;47.904;8.110;2022-07-10T13:22:16;23.70;99.90
21772;DHT22;11047;47.904;8.110;2022-07-10T13:24:43;23.50;99.90
21772;DHT22;11047;47.904;8.110;2022-07-10T13:27:10;23.10;99.90
21772;DHT22;11047;47.904;8.110;2022-07-10T13:29:38;23.10;99.90
21772;DHT22;11047;47.904;8.110;2022-07-10T13:32:06;23.00;99.90
21772;DHT22;11047;47.904;8.110;2022-07-10T13:34:32;23.50;99.90
21772;DHT22;11047;47.904;8.110;2022-07-10T13:37:00;23.50;99.90
21772;DHT22;11047;47.904;8.110;2022-07-10T13:39:27;23.50;99.90
21772;DHT22;11047;47.904;8.110;2022-07-10T13:41:54;23.40;99.90
21772;DHT22;11047;47.904;8.110;2022-07-10T13:44:21;23.00;99.90
21772;DHT22;11047;47.904;8.110;2022-07-10T13:46:50;22.90;99.90
21772;DHT22;11047;47.904;8.110;2022-07-10T13:49:17;22.70;99.90
21772;DHT22;11047;47.904;8.110;2022-07-10T13:51:44;22.90;99.90
21772;DHT22;11047;47.904;8.110;2022-07-10T13:54:11;22.80;99.90
21772;DHT22;11047;47.904;8.110;2022-07-10T13:56:38;22.80;99.90
21772;DHT22;11047;47.904;8.110;2022-07-10T13:59:05;22.30;99.90
21772;DHT22;11047;47.904;8.110;2022-07-10T14:01:31;22.40;99.90
21772;DHT22;11047;47.904;8.110;2022-07-10T14:04:00;22.30;99.90
21772;DHT22;11047;47.904;8.110;2022-07-10T14:06:27;22.50;99.90
21772;DHT22;11047;47.904;8.110;2022-07-10T14:08:53;22.40;99.90
21772;DHT22;11047;47.904;8.110;2022-07-10T14:11:20;22.60;99.90
21772;DHT22;11047;47.904;8.110;2022-07-10T14:13:47;22.60;99.90
21772;DHT22;11047;47.904;8.110;2022-07-10T14:16:14;22.60;99.90
21772;DHT22;11047;47.904;8.110;2022-07-10T14:18:41;22.70;99.90
21772;DHT22;11047;47.904;8.110;2022-07-10T14:21:11;22.30;99.90
21772;DHT22;11047;47.904;8.110;2022-07-10T14:23:40;22.20;99.90
21772;DHT22;11047;47.904;8.110;2022-07-10T14:26:09;22.00;99.90
21772;DHT22;11047;47.904;8.110;2022-07-10T14:28:37;22.10;99.90
21772;DHT22;11047;47.904;8.110;2022-07-10T14:31:05;22.10;99.90
21772;DHT22;11047;47.904;8.110;2022-07-10T14:33:33;22.20;99.90
21772;DHT22;11047;47.904;8.110;2022-07-10T14:36:00;22.20;99.90
21772;DHT22;11047;47.904;8.110;2022-07-10T14:38:29;22.30;99.90
21772;DHT22;11047;47.904;8.110;2022-07-10T14:40:56;22.10;99.90
21772;DHT22;11047;47.904;8.110;2022-07-10T14:43:23;22.10;99.90
21772;DHT22;11047;47.904;8.110;2022-07-10T14:45:50;22.30;99.90
21772;DHT22;11047;47.904;8.110;2022-07-10T14:48:17;22.30;99.90
21772;DHT22;11047;47.904;8.110;2022-07-10T14:50:44;22.50;99.90
21772;DHT22;11047;47.904;8.110;2022-07-10T14:53:11;22.10;99.90
21772;DHT22;11047;47.904;8.110;2022-07-10T14:55:39;22.20;99.90
21772;DHT22;11047;47.904;8.110;2022-07-10T14:58:06;22.00;99.90
21772;DHT22;11047;47.904;8.110;2022-07-10T15:00:33;22.00;99.90
21772;DHT22;11047;47.904;8.110;2022-07-10T15:03:00;22.10;99.90
21772;DHT22;11047;47.904;8.110;2022-07-10T15:05:27;22.00;99.90
21772;DHT22;11047;47.904;8.110;2022-07-10T15:07:54;21.80;99.90
21772;DHT22;11047;47.904;8.110;2022-07-10T15:10:21;21.90;99.90
21772;DHT22;11047;47.904;8.110;2022-07-10T15:12:49;21.90;99.90
21772;DHT22;11047;47.904;8.110;2022-07-10T15:15:17;21.80;99.90
21772;DHT22;11047;47.904;8.110;2022-07-10T15:17:44;21.80;99.90
21772;DHT22;11047;47.904;8.110;2022-07-10T15:20:11;21.90;99.90
21772;DHT22;11047;47.904;8.110;2022-07-10T15:22:38;21.80;99.90
21772;DHT22;11047;47.904;8.110;2022-07-10T15:25:06;21.90;99.90
21772;DHT22;11047;47.904;8.110;2022-07-10T15:27:37;21.60;99.90
21772;DHT22;11047;47.904;8.110;2022-07-10T15:30:07;21.40;99.90
21772;DHT22;11047;47.904;8.110;2022-07-10T15:32:34;21.40;99.90
21772;DHT22;11047;47.904;8.110;2022-07-10T15:35:01;21.50;99.90
21772;DHT22;11047;47.904;8.110;2022-07-10T15:37:28;21.40;99.90
21772;DHT22;11047;47.904;8.110;2022-07-10T15:39:55;21.30;99.90
21772;DHT22;11047;47.904;8.110;2022-07-10T15:42:22;21.40;99.90
21772;DHT22;11047;47.904;8.110;2022-07-10T15:44:49;21.30;99.90